sensor_id;sensor_type;location;lat;lon;timestamp;temperature;humidity
57386;DHT22;62655;56.780;23.922;2022-11-11T00:01:09;7.60;99.90
57386;DHT22;62655;56.780;23.922;2022-11-11T00:03:37;7.60;99.90
57386;DHT22;62655;56.780;23.922;2022-11-11T00:06:08;7.50;99.90
57386;DHT22;62655;56.780;23.922;2022-11-11T00:08:36;7.60;99.90
57386;DHT22;62655;56.780;23.922;2022-11-11T00:11:07;7.70;99.90
57386;DHT22;62655;56.780;23.922;2022-11-11T00:13:34;7.70;99.90
57386;DHT22;62655;56.780;23.922;2022-11-11T00:16:06;7.70;99.90
57386;DHT22;62655;56.780;23.922;2022-11-11T00:18:33;7.70;99.90
57386;DHT22;62655;56.780;23.922;2022-11-11T00:21:30;7.70;99.90
57386;DHT22;62655;56.780;23.922;2022-11-11T00:24:20;7.60;99.90
57386;DHT22;62655;56.780;23.922;2022-11-11T00:27:07;7.60;99.90
57386;DHT22;62655;56.780;23.922;2022-11-11T00:29:35;7.50;99.90
57386;DHT22;62655;56.780;23.922;2022-11-11T00:32:07;7.50;99.90
57386;DHT22;62655;56.780;23.922;2022-11-11T00:34:51;7.40;99.90
57386;DHT22;62655;56.780;23.922;2022-11-11T00:37:38;7.40;99.90
57386;DHT22;62655;56.780;23.922;2022-11-11T00:40:05;7.50;99.90
57386;DHT22;62655;56.780;23.922;2022-11-11T00:42:33;7.50;99.90
57386;DHT22;62655;56.780;23.922;2022-11-11T00:45:00;7.70;99.90
57386;DHT22;62655;56.780;23.922;2022-11-11T00:47:28;7.80;99.90
57386;DHT22;62655;56.780;23.922;2022-11-11T00:50:18;7.90;99.90
57386;DHT22;62655;56.780;23.922;2022-11-11T00:53:07;7.90;99.90
57386;DHT22;62655;56.780;23.922;2022-11-11T00:55:34;7.80;99.90
57386;DHT22;62655;56.780;23.922;2022-11-11T00:58:02;7.80;99.90
57386;DHT22;62655;56.780;23.922;2022-11-11T01:00:29;7.80;99.90
57386;DHT22;62655;56.780;23.922;2022-11-11T01:02:57;7.80;99.90
57386;DHT22;62655;56.780;23.922;2022-11-11T01:05:25;7.90;99.90
57386;DHT22;62655;56.780;23.922;2022-11-11T01:07:54;8.00;99.90
57386;DHT22;62655;56.780;23.922;2022-11-11T01:10:22;7.90;99.90
57386;DHT22;62655;56.780;23.922;2022-11-11T01:13:05;8.00;99.90
57386;DHT22;62655;56.780;23.922;2022-11-11T01:15:39;7.90;99.90
57386;DHT22;62655;56.780;23.922;2022-11-11T01:18:06;7.90;99.90
57386;DHT22;62655;56.780;23.922;2022-11-11T01:20:34;7.90;99.90
57386;DHT22;62655;56.780;23.922;2022-11-11T01:23:03;7.90;99.90
57386;DHT22;62655;56.780;23.922;2022-11-11T01:25:33;8.00;99.90
57386;DHT22;62655;56.780;23.922;2022-11-11T01:28:01;7.90;99.90
57386;DHT22;62655;56.780;23.922;2022-11-11T01:30:32;7.90;99.90
57386;DHT22;62655;56.780;23.922;2022-11-11T01:33:00;7.90;99.90
57386;DHT22;62655;56.780;23.922;2022-11-11T01:35:28;7.90;99.90
57386;DHT22;62655;56.780;23.922;2022-11-11T01:37:56;7.90;99.90
57386;DHT22;62655;56.780;23.922;2022-11-11T01:40:24;8.00;99.90
57386;DHT22;62655;56.780;23.922;2022-11-11T01:43:37;8.00;99.90
57386;DHT22;62655;56.780;23.922;2022-11-11T01:45:46;8.00;99.90
57386;DHT22;62655;56.780;23.922;2022-11-11T01:48:57;8.10;99.90
57386;DHT22;62655;56.780;23.922;2022-11-11T01:54:25;7.90;99.90
57386;DHT22;62655;56.780;23.922;2022-11-11T01:57:01;7.90;99.90
57386;DHT22;62655;56.780;23.922;2022-11-11T01:59:30;7.80;99.90
57386;DHT22;62655;56.780;23.922;2022-11-11T02:01:58;7.70;99.90
57386;DHT22;62655;56.780;23.922;2022-11-11T02:04:29;7.80;99.90
57386;DHT22;62655;56.780;23.922;2022-11-11T02:07:14;7.80;99.90
57386;DHT22;62655;56.780;23.922;2022-11-11T02:09:43;8.00;99.90
57386;DHT22;62655;56.780;23.922;2022-11-11T02:12:11;7.90;99.90
57386;DHT22;62655;56.780;23.922;2022-11-11T02:14:57;8.00;99.90
57386;DHT22;62655;56.780;23.922;2022-11-11T02:17:25;7.90;99.90
57386;DHT22;62655;56.780;23.922;2022-11-11T02:19:57;8.00;99.90
57386;DHT22;62655;56.780;23.922;2022-11-11T02:22:31;8.00;99.90
57386;DHT22;62655;56.780;23.922;2022-11-11T02:24:59;8.00;99.90
57386;DHT22;62655;56.780;23.922;2022-11-11T02:27:28;7.90;99.90
57386;DHT22;62655;56.780;23.922;2022-11-11T02:29:57;7.90;99.90
57386;DHT22;62655;56.780;23.922;2022-11-11T02:32:26;7.90;99.90
57386;DHT22;62655;56.780;23.922;2022-11-11T02:34:54;7.80;99.90
57386;DHT22;62655;56.780;23.922;2022-11-11T02:37:23;7.80;99.90
57386;DHT22;62655;56.780;23.922;2022-11-11T02:39:51;7.80;99.90
57386;DHT22;62655;56.780;23.922;2022-11-11T02:42:30;7.70;99.90
57386;DHT22;62655;56.780;23.922;2022-11-11T02:44:58;7.70;99.90
57386;DHT22;62655;56.780;23.922;2022-11-11T02:47:26;7.70;99.90
57386;DHT22;62655;56.780;23.922;2022-11-11T02:49:53;7.70;99.90
57386;DHT22;62655;56.780;23.922;2022-11-11T02:52:24;7.70;99.90
57386;DHT22;62655;56.780;23.922;2022-11-11T02:54:51;7.60;99.90
57386;DHT22;62655;56.780;23.922;2022-11-11T02:57:19;7.70;99.90
57386;DHT22;62655;56.780;23.922;2022-11-11T02:59:46;7.70;99.90
57386;DHT22;62655;56.780;23.922;2022-11-11T03:02:14;7.80;99.90
57386;DHT22;62655;56.780;23.922;2022-11-11T03:04:41;7.80;99.90
57386;DHT22;62655;56.780;23.922;2022-11-11T03:07:08;7.90;99.90
57386;DHT22;62655;56.780;23.922;2022-11-11T03:09:35;8.00;99.90
57386;DHT22;62655;56.780;23.922;2022-11-11T03:12:02;8.10;99.90
57386;DHT22;62655;56.780;23.922;2022-11-11T03:14:30;8.10;99.90
57386;DHT22;62655;56.780;23.922;2022-11-11T03:16:57;8.10;99.90
57386;DHT22;62655;56.780;23.922;2022-11-11T03:19:43;8.20;99.90
57386;DHT22;62655;56.780;23.922;2022-11-11T03:22:10;8.20;99.90
57386;DHT22;62655;56.780;23.922;2022-11-11T03:24:57;8.30;99.90
57386;DHT22;62655;56.780;23.922;2022-11-11T03:27:43;8.30;99.90
57386;DHT22;62655;56.780;23.922;2022-11-11T03:30:10;8.40;99.90
57386;DHT22;62655;56.780;23.922;2022-11-11T03:32:40;8.40;99.90
57386;DHT22;62655;56.780;23.922;2022-11-11T03:35:07;8.40;99.90
57386;DHT22;62655;56.780;23.922;2022-11-11T03:37:34;8.50;99.90
57386;DHT22;62655;56.780;23.922;2022-11-11T03:40:20;8.50;99.90
57386;DHT22;62655;56.780;23.922;2022-11-11T03:42:47;8.50;99.90
57386;DHT22;62655;56.780;23.922;2022-11-11T03:45:14;8.50;99.90
57386;DHT22;62655;56.780;23.922;2022-11-11T03:47:41;8.60;99.90
57386;DHT22;62655;56.780;23.922;2022-11-11T03:50:09;8.60;99.90
57386;DHT22;62655;56.780;23.922;2022-11-11T03:52:39;8.60;99.90
57386;DHT22;62655;56.780;23.922;2022-11-11T03:55:06;8.50;99.90
57386;DHT22;62655;56.780;23.922;2022-11-11T03:57:33;8.60;99.90
57386;DHT22;62655;56.780;23.922;2022-11-11T04:00:00;8.60;99.90
57386;DHT22;62655;56.780;23.922;2022-11-11T04:02:28;8.60;99.90
57386;DHT22;62655;56.780;23.922;2022-11-11T04:05:14;8.60;99.90
57386;DHT22;62655;56.780;23.922;2022-11-11T04:07:59;8.70;99.90
57386;DHT22;62655;56.780;23.922;2022-11-11T04:10:45;8.70;99.90
57386;DHT22;62655;56.780;23.922;2022-11-11T04:13:12;8.80;99.90
57386;DHT22;62655;56.780;23.922;2022-11-11T04:16:05;8.90;99.90
57386;DHT22;62655;56.780;23.922;2022-11-11T04:18:33;8.90;99.90
57386;DHT22;62655;56.780;23.922;2022-11-11T04:21:19;8.90;99.90
57386;DHT22;62655;56.780;23.922;2022-11-11T04:24:22;8.90;99.90
57386;DHT22;62655;56.780;23.922;2022-11-11T04:27:08;8.90;99.90
57386;DHT22;62655;56.780;23.922;2022-11-11T04:29:36;8.90;99.90
57386;DHT22;62655;56.780;23.922;2022-11-11T04:32:07;9.00;99.90
57386;DHT22;62655;56.780;23.922;2022-11-11T04:34:57;9.00;99.90
57386;DHT22;62655;56.780;23.922;2022-11-11T04:37:25;9.00;99.90
57386;DHT22;62655;56.780;23.922;2022-11-11T04:39:53;9.00;99.90
57386;DHT22;62655;56.780;23.922;2022-11-11T04:42:38;9.10;99.90
57386;DHT22;62655;56.780;23.922;2022-11-11T04:45:06;9.10;99.90
57386;DHT22;62655;56.780;23.922;2022-11-11T04:48:01;9.20;99.90
57386;DHT22;62655;56.780;23.922;2022-11-11T04:52:59;9.20;99.90
57386;DHT22;62655;56.780;23.922;2022-11-11T04:55:27;9.30;99.90
57386;DHT22;62655;56.780;23.922;2022-11-11T04:58:13;9.30;99.90
57386;DHT22;62655;56.780;23.922;2022-11-11T05:00:40;9.30;99.90
57386;DHT22;62655;56.780;23.922;2022-11-11T05:03:11;9.30;99.90
57386;DHT22;62655;56.780;23.922;2022-11-11T05:05:54;9.40;99.90
57386;DHT22;62655;56.780;23.922;2022-11-11T05:08:41;9.40;99.90
57386;DHT22;62655;56.780;23.922;2022-11-11T05:11:34;9.50;99.90
57386;DHT22;62655;56.780;23.922;2022-11-11T05:14:05;9.50;99.90
57386;DHT22;62655;56.780;23.922;2022-11-11T05:16:51;9.50;99.90
57386;DHT22;62655;56.780;23.922;2022-11-11T05:19:38;9.60;99.90
57386;DHT22;62655;56.780;23.922;2022-11-11T05:22:31;9.60;99.90
57386;DHT22;62655;56.780;23.922;2022-11-11T05:24:58;9.60;99.90
57386;DHT22;62655;56.780;23.922;2022-11-11T05:27:44;9.60;99.90
57386;DHT22;62655;56.780;23.922;2022-11-11T05:30:12;9.70;99.90
57386;DHT22;62655;56.780;23.922;2022-11-11T05:32:39;9.70;99.90
57386;DHT22;62655;56.780;23.922;2022-11-11T05:35:07;9.80;99.90
57386;DHT22;62655;56.780;23.922;2022-11-11T05:37:34;9.80;99.90
57386;DHT22;62655;56.780;23.922;2022-11-11T05:40:01;9.80;99.90
57386;DHT22;62655;56.780;23.922;2022-11-11T05:42:29;9.90;99.90
57386;DHT22;62655;56.780;23.922;2022-11-11T05:44:57;9.90;99.90
57386;DHT22;62655;56.780;23.922;2022-11-11T05:47:24;9.90;99.90
57386;DHT22;62655;56.780;23.922;2022-11-11T05:49:52;9.90;99.90
57386;DHT22;62655;56.780;23.922;2022-11-11T05:52:19;9.90;99.90
57386;DHT22;62655;56.780;23.922;2022-11-11T05:54:46;9.90;99.90
57386;DHT22;62655;56.780;23.922;2022-11-11T05:57:13;10.00;99.90
57386;DHT22;62655;56.780;23.922;2022-11-11T05:59:40;10.00;99.90
57386;DHT22;62655;56.780;23.922;2022-11-11T06:02:08;10.00;99.90
57386;DHT22;62655;56.780;23.922;2022-11-11T06:04:35;10.00;99.90
57386;DHT22;62655;56.780;23.922;2022-11-11T06:07:02;10.00;99.90
57386;DHT22;62655;56.780;23.922;2022-11-11T06:09:29;10.00;99.90
57386;DHT22;62655;56.780;23.922;2022-11-11T06:11:56;10.10;99.90
57386;DHT22;62655;56.780;23.922;2022-11-11T06:14:24;10.10;99.90
57386;DHT22;62655;56.780;23.922;2022-11-11T06:16:51;10.10;99.90
57386;DHT22;62655;56.780;23.922;2022-11-11T06:19:18;10.10;99.90
57386;DHT22;62655;56.780;23.922;2022-11-11T06:21:45;10.10;99.90
57386;DHT22;62655;56.780;23.922;2022-11-11T06:24:25;10.20;99.90
57386;DHT22;62655;56.780;23.922;2022-11-11T06:26:53;10.20;99.90
57386;DHT22;62655;56.780;23.922;2022-11-11T06:29:20;10.20;99.90
57386;DHT22;62655;56.780;23.922;2022-11-11T06:31:48;10.20;99.90
57386;DHT22;62655;56.780;23.922;2022-11-11T06:34:15;10.30;99.90
57386;DHT22;62655;56.780;23.922;2022-11-11T06:36:42;10.30;99.90
57386;DHT22;62655;56.780;23.922;2022-11-11T06:39:09;10.30;99.90
57386;DHT22;62655;56.780;23.922;2022-11-11T06:41:37;10.30;99.90
57386;DHT22;62655;56.780;23.922;2022-11-11T06:44:04;10.40;99.90
57386;DHT22;62655;56.780;23.922;2022-11-11T06:46:31;10.40;99.90
57386;DHT22;62655;56.780;23.922;2022-11-11T06:48:58;10.40;99.90
57386;DHT22;62655;56.780;23.922;2022-11-11T06:51:25;10.40;99.90
57386;DHT22;62655;56.780;23.922;2022-11-11T06:53:52;10.40;99.90
57386;DHT22;62655;56.780;23.922;2022-11-11T06:56:19;10.40;99.90
57386;DHT22;62655;56.780;23.922;2022-11-11T06:58:47;10.40;99.90
57386;DHT22;62655;56.780;23.922;2022-11-11T07:01:14;10.40;99.90
57386;DHT22;62655;56.780;23.922;2022-11-11T07:03:41;10.40;99.90
57386;DHT22;62655;56.780;23.922;2022-11-11T07:06:08;10.40;99.90
57386;DHT22;62655;56.780;23.922;2022-11-11T07:08:36;10.40;99.90
57386;DHT22;62655;56.780;23.922;2022-11-11T07:11:03;10.40;99.90
57386;DHT22;62655;56.780;23.922;2022-11-11T07:13:41;10.40;99.90
57386;DHT22;62655;56.780;23.922;2022-11-11T07:16:09;10.40;99.90
57386;DHT22;62655;56.780;23.922;2022-11-11T07:18:37;10.40;99.90
57386;DHT22;62655;56.780;23.922;2022-11-11T07:21:04;10.40;99.90
57386;DHT22;62655;56.780;23.922;2022-11-11T07:23:31;10.40;99.90
57386;DHT22;62655;56.780;23.922;2022-11-11T07:25:58;10.50;99.90
57386;DHT22;62655;56.780;23.922;2022-11-11T07:28:25;10.50;99.90
57386;DHT22;62655;56.780;23.922;2022-11-11T07:30:53;10.40;99.90
57386;DHT22;62655;56.780;23.922;2022-11-11T07:33:20;10.50;99.90
57386;DHT22;62655;56.780;23.922;2022-11-11T07:35:50;10.40;99.90
57386;DHT22;62655;56.780;23.922;2022-11-11T07:38:18;10.50;99.90
57386;DHT22;62655;56.780;23.922;2022-11-11T07:40:45;10.50;99.90
57386;DHT22;62655;56.780;23.922;2022-11-11T07:43:12;10.40;99.90
57386;DHT22;62655;56.780;23.922;2022-11-11T07:45:39;10.50;99.90
57386;DHT22;62655;56.780;23.922;2022-11-11T07:48:06;10.40;99.90
57386;DHT22;62655;56.780;23.922;2022-11-11T07:50:33;10.40;99.90
57386;DHT22;62655;56.780;23.922;2022-11-11T07:53:00;10.40;99.90
57386;DHT22;62655;56.780;23.922;2022-11-11T07:55:28;10.40;99.90
57386;DHT22;62655;56.780;23.922;2022-11-11T07:57:56;10.40;99.90
57386;DHT22;62655;56.780;23.922;2022-11-11T08:00:23;10.40;99.90
57386;DHT22;62655;56.780;23.922;2022-11-11T08:02:50;10.40;99.90
57386;DHT22;62655;56.780;23.922;2022-11-11T08:05:24;10.40;99.90
57386;DHT22;62655;56.780;23.922;2022-11-11T08:07:51;10.40;99.90
57386;DHT22;62655;56.780;23.922;2022-11-11T08:10:18;10.40;99.90
57386;DHT22;62655;56.780;23.922;2022-11-11T08:12:50;10.50;99.90
57386;DHT22;62655;56.780;23.922;2022-11-11T08:15:38;10.50;99.90
57386;DHT22;62655;56.780;23.922;2022-11-11T08:18:06;10.50;99.90
57386;DHT22;62655;56.780;23.922;2022-11-11T08:20:33;10.50;99.90
57386;DHT22;62655;56.780;23.922;2022-11-11T08:23:00;10.50;99.90
57386;DHT22;62655;56.780;23.922;2022-11-11T08:25:49;10.50;99.90
57386;DHT22;62655;56.780;23.922;2022-11-11T08:28:16;10.50;99.90
57386;DHT22;62655;56.780;23.922;2022-11-11T08:30:44;10.60;99.90
57386;DHT22;62655;56.780;23.922;2022-11-11T08:33:11;10.60;99.90
57386;DHT22;62655;56.780;23.922;2022-11-11T08:35:58;10.60;99.90
57386;DHT22;62655;56.780;23.922;2022-11-11T08:38:25;10.60;99.90
57386;DHT22;62655;56.780;23.922;2022-11-11T08:40:52;10.60;99.90
57386;DHT22;62655;56.780;23.922;2022-11-11T08:43:20;10.70;99.90
57386;DHT22;62655;56.780;23.922;2022-11-11T08:45:51;10.70;99.90
57386;DHT22;62655;56.780;23.922;2022-11-11T08:48:18;10.70;99.90
57386;DHT22;62655;56.780;23.922;2022-11-11T08:50:45;10.70;99.90
57386;DHT22;62655;56.780;23.922;2022-11-11T08:53:12;10.80;99.90
57386;DHT22;62655;56.780;23.922;2022-11-11T08:55:39;10.80;99.90
57386;DHT22;62655;56.780;23.922;2022-11-11T08:58:07;10.80;99.90
57386;DHT22;62655;56.780;23.922;2022-11-11T09:00:34;10.90;99.90
57386;DHT22;62655;56.780;23.922;2022-11-11T09:03:05;10.90;99.90
57386;DHT22;62655;56.780;23.922;2022-11-11T09:05:32;10.90;99.90
57386;DHT22;62655;56.780;23.922;2022-11-11T09:08:00;10.90;99.90
57386;DHT22;62655;56.780;23.922;2022-11-11T09:10:27;10.90;99.90
57386;DHT22;62655;56.780;23.922;2022-11-11T09:12:55;10.90;99.90
57386;DHT22;62655;56.780;23.922;2022-11-11T09:15:23;11.00;99.90
57386;DHT22;62655;56.780;23.922;2022-11-11T09:17:50;11.00;99.90
57386;DHT22;62655;56.780;23.922;2022-11-11T09:20:18;11.00;99.90
57386;DHT22;62655;56.780;23.922;2022-11-11T09:22:51;11.00;99.90
57386;DHT22;62655;56.780;23.922;2022-11-11T09:25:19;11.00;99.90
57386;DHT22;62655;56.780;23.922;2022-11-11T09:27:56;11.00;99.90
57386;DHT22;62655;56.780;23.922;2022-11-11T09:30:24;11.00;99.90
57386;DHT22;62655;56.780;23.922;2022-11-11T09:32:51;11.00;99.90
57386;DHT22;62655;56.780;23.922;2022-11-11T09:35:19;11.00;99.90
57386;DHT22;62655;56.780;23.922;2022-11-11T09:37:56;11.00;99.90
57386;DHT22;62655;56.780;23.922;2022-11-11T09:40:24;11.00;99.90
57386;DHT22;62655;56.780;23.922;2022-11-11T09:43:09;11.00;99.90
57386;DHT22;62655;56.780;23.922;2022-11-11T09:48:27;11.00;99.90
57386;DHT22;62655;56.780;23.922;2022-11-11T09:50:57;11.00;99.90
57386;DHT22;62655;56.780;23.922;2022-11-11T09:55:54;11.10;99.90
57386;DHT22;62655;56.780;23.922;2022-11-11T09:58:24;11.10;99.90
57386;DHT22;62655;56.780;23.922;2022-11-11T10:00:56;11.10;99.90
57386;DHT22;62655;56.780;23.922;2022-11-11T10:03:28;11.10;99.90
57386;DHT22;62655;56.780;23.922;2022-11-11T10:05:58;11.10;99.90
57386;DHT22;62655;56.780;23.922;2022-11-11T10:08:27;11.10;99.90
57386;DHT22;62655;56.780;23.922;2022-11-11T10:10:57;11.20;99.90
57386;DHT22;62655;56.780;23.922;2022-11-11T10:13:29;11.20;99.90
57386;DHT22;62655;56.780;23.922;2022-11-11T10:16:03;11.20;99.90
57386;DHT22;62655;56.780;23.922;2022-11-11T10:21:22;11.20;99.90
57386;DHT22;62655;56.780;23.922;2022-11-11T10:23:54;11.20;99.90
57386;DHT22;62655;56.780;23.922;2022-11-11T10:26:28;11.20;99.90
57386;DHT22;62655;56.780;23.922;2022-11-11T10:28:58;11.30;99.90
57386;DHT22;62655;56.780;23.922;2022-11-11T10:31:26;11.20;99.90
57386;DHT22;62655;56.780;23.922;2022-11-11T10:34:02;11.30;99.90
57386;DHT22;62655;56.780;23.922;2022-11-11T10:36:30;11.30;99.90
57386;DHT22;62655;56.780;23.922;2022-11-11T10:39:03;11.30;99.90
57386;DHT22;62655;56.780;23.922;2022-11-11T10:41:36;11.30;99.90
57386;DHT22;62655;56.780;23.922;2022-11-11T10:44:21;11.40;99.90
57386;DHT22;62655;56.780;23.922;2022-11-11T10:49:19;11.40;99.90
57386;DHT22;62655;56.780;23.922;2022-11-11T10:51:51;11.40;99.90
57386;DHT22;62655;56.780;23.922;2022-11-11T10:54:59;11.40;99.90
57386;DHT22;62655;56.780;23.922;2022-11-11T10:57:36;11.40;99.90
57386;DHT22;62655;56.780;23.922;2022-11-11T11:00:05;11.50;99.90
57386;DHT22;62655;56.780;23.922;2022-11-11T11:02:37;11.50;99.90
57386;DHT22;62655;56.780;23.922;2022-11-11T11:05:08;11.50;99.90
57386;DHT22;62655;56.780;23.922;2022-11-11T11:07:40;11.50;99.90
57386;DHT22;62655;56.780;23.922;2022-11-11T11:10:33;11.50;99.90
57386;DHT22;62655;56.780;23.922;2022-11-11T11:13:06;11.50;99.90
57386;DHT22;62655;56.780;23.922;2022-11-11T11:15:36;11.50;99.90
57386;DHT22;62655;56.780;23.922;2022-11-11T11:18:09;11.50;99.90
57386;DHT22;62655;56.780;23.922;2022-11-11T11:20:38;11.50;99.90
57386;DHT22;62655;56.780;23.922;2022-11-11T11:25:59;11.50;99.90
57386;DHT22;62655;56.780;23.922;2022-11-11T11:28:28;11.50;99.90
57386;DHT22;62655;56.780;23.922;2022-11-11T11:31:00;11.50;99.90
57386;DHT22;62655;56.780;23.922;2022-11-11T11:33:30;11.60;99.90
57386;DHT22;62655;56.780;23.922;2022-11-11T11:36:15;11.60;99.90
57386;DHT22;62655;56.780;23.922;2022-11-11T11:38:44;11.60;99.90
57386;DHT22;62655;56.780;23.922;2022-11-11T11:41:13;11.60;99.90
57386;DHT22;62655;56.780;23.922;2022-11-11T11:43:40;11.60;99.90
57386;DHT22;62655;56.780;23.922;2022-11-11T11:46:26;11.60;99.90
57386;DHT22;62655;56.780;23.922;2022-11-11T11:54:02;11.60;99.90
57386;DHT22;62655;56.780;23.922;2022-11-11T11:59:04;11.60;99.90
57386;DHT22;62655;56.780;23.922;2022-11-11T12:17:31;11.80;99.90
57386;DHT22;62655;56.780;23.922;2022-11-11T12:22:21;11.80;99.90
57386;DHT22;62655;56.780;23.922;2022-11-11T12:25:01;11.80;99.90
57386;DHT22;62655;56.780;23.922;2022-11-11T12:30:24;11.80;99.90
57386;DHT22;62655;56.780;23.922;2022-11-11T12:33:17;11.80;99.90
57386;DHT22;62655;56.780;23.922;2022-11-11T12:46:17;11.90;99.90
57386;DHT22;62655;56.780;23.922;2022-11-11T12:51:19;11.90;99.90
57386;DHT22;62655;56.780;23.922;2022-11-11T12:53:54;11.90;99.90
57386;DHT22;62655;56.780;23.922;2022-11-11T13:04:45;12.00;99.90
57386;DHT22;62655;56.780;23.922;2022-11-11T13:10:12;12.00;99.90
57386;DHT22;62655;56.780;23.922;2022-11-11T13:12:44;12.00;99.90
57386;DHT22;62655;56.780;23.922;2022-11-11T13:15:17;12.00;99.90
57386;DHT22;62655;56.780;23.922;2022-11-11T13:17:46;12.00;99.90
57386;DHT22;62655;56.780;23.922;2022-11-11T13:20:19;12.10;99.90
57386;DHT22;62655;56.780;23.922;2022-11-11T13:22:48;12.10;99.90
57386;DHT22;62655;56.780;23.922;2022-11-11T13:25:20;12.10;99.90
57386;DHT22;62655;56.780;23.922;2022-11-11T13:27:59;12.10;99.90
57386;DHT22;62655;56.780;23.922;2022-11-11T13:33:00;12.10;99.90
57386;DHT22;62655;56.780;23.922;2022-11-11T13:35:29;12.20;99.90
57386;DHT22;62655;56.780;23.922;2022-11-11T13:37:58;12.20;99.90
57386;DHT22;62655;56.780;23.922;2022-11-11T13:40:36;12.20;99.90
57386;DHT22;62655;56.780;23.922;2022-11-11T13:43:13;12.20;99.90
57386;DHT22;62655;56.780;23.922;2022-11-11T13:45:42;12.20;99.90
57386;DHT22;62655;56.780;23.922;2022-11-11T13:48:17;12.20;99.90
57386;DHT22;62655;56.780;23.922;2022-11-11T13:50:45;12.20;99.90
57386;DHT22;62655;56.780;23.922;2022-11-11T13:55:52;12.20;99.90
57386;DHT22;62655;56.780;23.922;2022-11-11T13:58:34;12.20;99.90
57386;DHT22;62655;56.780;23.922;2022-11-11T14:01:02;12.20;99.90
57386;DHT22;62655;56.780;23.922;2022-11-11T14:03:34;12.20;99.90
57386;DHT22;62655;56.780;23.922;2022-11-11T14:21:52;12.20;99.90
57386;DHT22;62655;56.780;23.922;2022-11-11T14:26:59;12.20;99.90
57386;DHT22;62655;56.780;23.922;2022-11-11T14:29:31;12.30;99.90
57386;DHT22;62655;56.780;23.922;2022-11-11T14:32:18;12.30;99.90
57386;DHT22;62655;56.780;23.922;2022-11-11T14:40:27;12.30;99.90
57386;DHT22;62655;56.780;23.922;2022-11-11T14:42:54;12.30;99.90
57386;DHT22;62655;56.780;23.922;2022-11-11T14:47:50;12.30;99.90
57386;DHT22;62655;56.780;23.922;2022-11-11T14:53:01;12.30;99.90
57386;DHT22;62655;56.780;23.922;2022-11-11T14:55:36;12.30;99.90
57386;DHT22;62655;56.780;23.922;2022-11-11T15:03:27;12.30;99.90
57386;DHT22;62655;56.780;23.922;2022-11-11T15:06:01;12.30;99.90
57386;DHT22;62655;56.780;23.922;2022-11-11T15:08:37;12.30;99.90
57386;DHT22;62655;56.780;23.922;2022-11-11T15:13:58;12.30;99.90
57386;DHT22;62655;56.780;23.922;2022-11-11T15:21:55;12.30;99.90
57386;DHT22;62655;56.780;23.922;2022-11-11T15:24:40;12.40;99.90
57386;DHT22;62655;56.780;23.922;2022-11-11T15:29:47;12.40;99.90
57386;DHT22;62655;56.780;23.922;2022-11-11T15:32:35;12.40;99.90
57386;DHT22;62655;56.780;23.922;2022-11-11T15:35:19;12.40;99.90
57386;DHT22;62655;56.780;23.922;2022-11-11T15:37:57;12.50;99.90
57386;DHT22;62655;56.780;23.922;2022-11-11T15:40:26;12.50;99.90
57386;DHT22;62655;56.780;23.922;2022-11-11T15:42:53;12.50;99.90
57386;DHT22;62655;56.780;23.922;2022-11-11T15:45:22;12.60;99.90
57386;DHT22;62655;56.780;23.922;2022-11-11T15:47:50;12.60;99.90
57386;DHT22;62655;56.780;23.922;2022-11-11T15:52:56;12.60;99.90
57386;DHT22;62655;56.780;23.922;2022-11-11T15:55:30;12.60;99.90
57386;DHT22;62655;56.780;23.922;2022-11-11T15:58:13;12.60;99.90
57386;DHT22;62655;56.780;23.922;2022-11-11T16:00:41;12.60;99.90
57386;DHT22;62655;56.780;23.922;2022-11-11T16:03:30;12.70;99.90
57386;DHT22;62655;56.780;23.922;2022-11-11T16:05:57;12.70;99.90
57386;DHT22;62655;56.780;23.922;2022-11-11T16:08:24;12.70;99.90
57386;DHT22;62655;56.780;23.922;2022-11-11T16:10:53;12.70;99.90
57386;DHT22;62655;56.780;23.922;2022-11-11T16:13:24;12.70;99.90
57386;DHT22;62655;56.780;23.922;2022-11-11T16:18:25;12.80;99.90
57386;DHT22;62655;56.780;23.922;2022-11-11T16:20:56;12.80;99.90
57386;DHT22;62655;56.780;23.922;2022-11-11T16:23:24;12.80;99.90
57386;DHT22;62655;56.780;23.922;2022-11-11T16:25:55;12.80;99.90
57386;DHT22;62655;56.780;23.922;2022-11-11T16:28:25;12.80;99.90
57386;DHT22;62655;56.780;23.922;2022-11-11T16:30:54;12.80;99.90
57386;DHT22;62655;56.780;23.922;2022-11-11T16:35:51;12.80;99.90
57386;DHT22;62655;56.780;23.922;2022-11-11T16:38:29;12.80;99.90
57386;DHT22;62655;56.780;23.922;2022-11-11T16:40:57;12.80;99.90
57386;DHT22;62655;56.780;23.922;2022-11-11T16:43:28;12.80;99.90
57386;DHT22;62655;56.780;23.922;2022-11-11T16:51:18;12.80;99.90
57386;DHT22;62655;56.780;23.922;2022-11-11T16:53:48;12.80;99.90
57386;DHT22;62655;56.780;23.922;2022-11-11T16:56:18;12.80;99.90
57386;DHT22;62655;56.780;23.922;2022-11-11T16:58:52;12.80;99.90
57386;DHT22;62655;56.780;23.922;2022-11-11T17:01:20;12.80;99.90
57386;DHT22;62655;56.780;23.922;2022-11-11T17:03:55;12.80;99.90
57386;DHT22;62655;56.780;23.922;2022-11-11T17:09:25;12.80;99.90
57386;DHT22;62655;56.780;23.922;2022-11-11T17:11:52;12.80;99.90
57386;DHT22;62655;56.780;23.922;2022-11-11T17:14:19;12.80;99.90
57386;DHT22;62655;56.780;23.922;2022-11-11T17:16:47;12.80;99.90
57386;DHT22;62655;56.780;23.922;2022-11-11T17:19:14;12.80;99.90
57386;DHT22;62655;56.780;23.922;2022-11-11T17:21:41;12.80;99.90
57386;DHT22;62655;56.780;23.922;2022-11-11T17:24:08;12.80;99.90
57386;DHT22;62655;56.780;23.922;2022-11-11T17:26:35;12.80;99.90
57386;DHT22;62655;56.780;23.922;2022-11-11T17:29:03;12.80;99.90
57386;DHT22;62655;56.780;23.922;2022-11-11T17:31:30;12.80;99.90
57386;DHT22;62655;56.780;23.922;2022-11-11T17:33:57;12.90;99.90
57386;DHT22;62655;56.780;23.922;2022-11-11T17:36:24;12.80;99.90
57386;DHT22;62655;56.780;23.922;2022-11-11T17:38:51;12.80;99.90
57386;DHT22;62655;56.780;23.922;2022-11-11T17:41:18;12.80;99.90
57386;DHT22;62655;56.780;23.922;2022-11-11T17:43:46;12.80;99.90
57386;DHT22;62655;56.780;23.922;2022-11-11T17:46:13;12.80;99.90
57386;DHT22;62655;56.780;23.922;2022-11-11T17:48:40;12.90;99.90
57386;DHT22;62655;56.780;23.922;2022-11-11T17:51:07;12.80;99.90
57386;DHT22;62655;56.780;23.922;2022-11-11T17:53:35;12.80;99.90
57386;DHT22;62655;56.780;23.922;2022-11-11T17:56:03;12.80;99.90
57386;DHT22;62655;56.780;23.922;2022-11-11T17:58:30;12.80;99.90
57386;DHT22;62655;56.780;23.922;2022-11-11T18:01:05;12.80;99.90
57386;DHT22;62655;56.780;23.922;2022-11-11T18:03:33;12.80;99.90
57386;DHT22;62655;56.780;23.922;2022-11-11T18:06:00;12.80;99.90
57386;DHT22;62655;56.780;23.922;2022-11-11T18:08:30;12.80;99.90